| time (UTC) | temp C | wind direction | speed KPH | gust KPH | rain 1hr cm | rain 24hr cm | rain mn cm | humidity % | barometer mb |
| 20260507093014 | 10 | 262 | 1.6 | 12.9 | 0.00 | 0.43 | 0.10 | 91 | 1014.0 |
| 20260507091513 | 10 | 290 | 1.6 | 16.1 | 0.00 | 0.43 | 0.10 | 91 | 1013.8 |
| 20260507090012 | 10 | 216 | 1.6 | 11.3 | 0.00 | 0.43 | 0.10 | 92 | 1013.6 |
| 20260507084512 | 10 | 279 | 1.6 | 17.7 | 0.00 | 0.43 | 0.10 | 92 | 1013.4 |
| 20260507083006 | 10 | 253 | 8.0 | 22.5 | 0.03 | 0.43 | 0.10 | 92 | 1013.2 |
| 20260507081505 | 10 | 309 | 0.0 | 11.3 | 0.03 | 0.43 | 0.10 | 92 | 1013.1 |
| 20260507080005 | 10 | 239 | 0.0 | 11.3 | 0.05 | 0.43 | 0.10 | 92 | 1012.9 |
| 20260507074500 | 10 | 276 | 0.0 | 12.9 | 0.05 | 0.43 | 0.10 | 92 | 1012.7 |
| 20260507073100 | 10 | 199 | 0.0 | 8.0 | 0.05 | 0.43 | 0.08 | 92 | 1012.6 |
| 20260507071609 | 10 | 254 | 0.0 | 6.4 | 0.05 | 0.43 | 0.08 | 92 | 1012.5 |
| 20260507070056 | 10 | 236 | 0.0 | 14.5 | 0.03 | 0.41 | 0.05 | 92 | 1012.4 |
| 20260507064607 | 9 | 190 | 0.0 | 8.0 | 0.03 | 0.41 | 0.05 | 92 | 1012.4 |
| 20260507063054 | 9 | 248 | 0.0 | 11.3 | 0.00 | 0.38 | 0.05 | 92 | 1012.2 |
| 20260507061551 | 9 | 236 | 1.6 | 16.1 | 0.00 | 0.38 | 0.05 | 92 | 1012.1 |
| 20260507060054 | 9 | 242 | 0.0 | 8.0 | 0.00 | 0.38 | 0.05 | 92 | 1011.9 |
| 20260507054553 | 8 | 219 | 0.0 | 9.7 | 0.00 | 0.38 | 0.05 | 92 | 1011.7 |
| 20260507053045 | 8 | 256 | 0.0 | 9.7 | 0.00 | 0.38 | 0.05 | 92 | 1011.7 |
| 20260507051541 | 8 | 240 | 0.0 | 4.8 | 0.00 | 0.38 | 0.05 | 92 | 1011.4 |
| 20260507050041 | 8 | 231 | 0.0 | 4.8 | 0.00 | 0.38 | 0.05 | 92 | 1011.3 |
| 20260507044535 | 8 | 224 | 0.0 | 6.4 | 0.00 | 0.38 | 0.05 | 92 | 1011.1 |
| 20260507043035 | 8 | 209 | 3.2 | 9.7 | 0.00 | 0.38 | 0.05 | 92 | 1011.1 |
| 20260507041547 | 8 | 192 | 0.0 | 8.0 | 0.00 | 0.38 | 0.05 | 92 | 1010.9 |
| 20260507040029 | 8 | 288 | 0.0 | 4.8 | 0.00 | 0.38 | 0.05 | 92 | 1010.7 |
| 20260507034528 | 8 | 261 | 0.0 | 6.4 | 0.00 | 0.38 | 0.05 | 92 | 1010.7 |
| 20260507033031 | 8 | 226 | 0.0 | 4.8 | 0.00 | 0.38 | 0.05 | 92 | 1010.6 |
| 20260507031525 | 8 | 238 | 0.0 | 4.8 | 0.00 | 0.38 | 0.05 | 92 | 1010.5 |
| 20260507030024 | 8 | 287 | 0.0 | 6.4 | 0.00 | 0.38 | 0.05 | 92 | 1010.5 |
| 20260507024522 | 9 | 269 | 0.0 | 11.3 | 0.00 | 0.38 | 0.05 | 92 | 1010.4 |
| 20260507023021 | 9 | 261 | 0.0 | 9.7 | 0.00 | 0.38 | 0.05 | 92 | 1010.4 |
| 20260507021519 | 9 | 246 | 0.0 | 4.8 | 0.00 | 0.38 | 0.05 | 92 | 1010.3 |
| 20260507020018 | 9 | 267 | 0.0 | 8.0 | 0.00 | 0.38 | 0.05 | 92 | 1010.2 |
| 20260507014523 | 10 | 271 | 0.0 | 6.4 | 0.00 | 0.38 | 0.05 | 92 | 1010.1 |
| 20260507013030 | 10 | 292 | 0.0 | 6.4 | 0.00 | 0.38 | 0.05 | 92 | 1010.0 |
| 20260507011528 | 10 | 234 | 1.6 | 16.1 | 0.03 | 0.38 | 0.05 | 92 | 1009.9 |
| 20260507010008 | 10 | 256 | 0.0 | 8.0 | 0.03 | 0.38 | 0.05 | 92 | 1009.8 |
| 20260507004507 | 10 | 249 | 0.0 | 8.0 | 0.03 | 0.38 | 0.05 | 92 | 1009.8 |
| 20260507003006 | 10 | 235 | 0.0 | 0.0 | 0.03 | 0.38 | 0.05 | 92 | 1009.8 |
| 20260507001508 | 10 | 270 | 0.0 | 6.4 | 0.00 | 0.36 | 0.03 | 92 | 1009.9 |
| 20260507000017 | 10 | 249 | 0.0 | 8.0 | 0.00 | 0.36 | 0.03 | 91 | 1009.9 |
| 20260506234504 | 10 | 233 | 0.0 | 9.7 | 0.03 | 0.36 | 0.03 | 92 | 1009.9 |
| 20260506233002 | 10 | 261 | 0.0 | 8.0 | 0.03 | 0.36 | 0.03 | 92 | 1009.8 |
| 20260506231501 | 10 | 159 | 0.0 | 6.4 | 0.03 | 0.36 | 0.03 | 91 | 1009.8 |
| 20260506224559 | 10 | 235 | 0.0 | 6.4 | 0.00 | 0.33 | 0.00 | 91 | 1009.7 |
| 20260506223120 | 10 | 257 | 1.6 | 8.0 | 0.00 | 0.33 | 0.00 | 91 | 1009.7 |
| 20260506221602 | 10 | 244 | 0.0 | 3.2 | 0.03 | 0.33 | 0.00 | 91 | 1009.6 |
| 20260506220054 | 11 | 250 | 0.0 | 6.4 | 0.03 | 0.33 | 0.00 | 91 | 1009.2 |
| 20260506214603 | 11 | 234 | 0.0 | 6.4 | 0.03 | 0.33 | 0.33 | 91 | 1009.3 |
| 20260506213052 | 11 | 250 | 0.0 | 11.3 | 0.03 | 0.33 | 0.33 | 91 | 1009.3 |
| 20260506211553 | 11 | 209 | 0.0 | 8.0 | 0.00 | 0.33 | 0.33 | 91 | 1009.2 |
| 20260506210048 | 11 | 256 | 0.0 | 4.8 | 0.00 | 0.33 | 0.33 | 90 | 1009.1 |
| 20260506204546 | 11 | 227 | 0.0 | 3.2 | 0.00 | 0.33 | 0.33 | 90 | 1008.8 |
| 20260506203047 | 11 | 265 | 0.0 | 0.0 | 0.00 | 0.33 | 0.33 | 90 | 1008.7 |
| 20260506201544 | 11 | 265 | 0.0 | 0.0 | 0.00 | 0.33 | 0.33 | 89 | 1008.5 |
| 20260506194541 | 11 | 316 | 0.0 | 0.0 | 0.23 | 0.33 | 0.33 | 89 | 1008.3 |
| 20260506193044 | 11 | 223 | 0.0 | 0.0 | 0.28 | 0.33 | 0.33 | 89 | 1008.4 |
| 20260506191540 | 12 | 219 | 0.0 | 0.0 | 0.28 | 0.33 | 0.33 | 89 | 1008.2 |
| 20260506190039 | 12 | 186 | 0.0 | 11.3 | 0.23 | 0.25 | 0.25 | 89 | 1007.9 |
| 20260506184538 | 12 | 350 | 0.0 | 8.0 | 0.05 | 0.10 | 0.10 | 88 | 1007.3 |
| 20260506183037 | 12 | 273 | 1.6 | 11.3 | 0.00 | 0.05 | 0.05 | 87 | 1007.4 |
| 20260506181539 | 12 | 244 | 0.0 | 6.4 | 0.00 | 0.05 | 0.05 | 86 | 1007.2 |
| 20260506180046 | 12 | 319 | 0.0 | 3.2 | 0.00 | 0.05 | 0.05 | 85 | 1006.7 |
| 20260506174536 | 13 | 292 | 0.0 | 8.0 | 0.00 | 0.05 | 0.05 | 85 | 1006.2 |
| 20260506173035 | 13 | 344 | 0.0 | 8.0 | 0.00 | 0.05 | 0.05 | 84 | 1005.9 |
| 20260506171547 | 13 | 273 | 1.6 | 9.7 | 0.00 | 0.05 | 0.05 | 83 | 1006.1 |
| 20260506170037 | 13 | 210 | 1.6 | 6.4 | 0.00 | 0.05 | 0.05 | 82 | 1006.2 |
| 20260506164537 | 13 | 329 | 0.0 | 4.8 | 0.00 | 0.18 | 0.05 | 81 | 1006.0 |
| 20260506163045 | 13 | 355 | 0.0 | 4.8 | 0.00 | 0.18 | 0.05 | 81 | 1005.9 |
| 20260506161547 | 14 | 57 | 0.0 | 1.6 | 0.00 | 0.18 | 0.05 | 80 | 1005.9 |
| 20260506160034 | 15 | 329 | 0.0 | 6.4 | 0.03 | 0.18 | 0.05 | 79 | 1006.1 |
| 20260506154533 | 15 | 344 | 0.0 | 1.6 | 0.05 | 0.43 | 0.05 | 77 | 1006.3 |
| 20260506153032 | 16 | 355 | 0.0 | 6.4 | 0.05 | 0.43 | 0.05 | 77 | 1006.4 |
| 20260506151532 | 16 | 302 | 0.0 | 4.8 | 0.05 | 0.43 | 0.05 | 73 | 1006.1 |
| 20260506150034 | 17 | 244 | 1.6 | 17.7 | 0.03 | 0.43 | 0.03 | 70 | 1006.0 |
| 20260506144530 | 17 | 325 | 0.0 | 0.0 | 0.00 | 0.41 | 0.00 | 67 | 1005.6 |
| 20260506143030 | 17 | 321 | 0.0 | 0.0 | 0.00 | 0.41 | 0.00 | 65 | 1005.7 |
| 20260506141530 | 18 | 321 | 0.0 | 3.2 | 0.00 | 0.41 | 0.00 | 65 | 1005.8 |
| 20260506140029 | 18 | 232 | 0.0 | 0.0 | 0.00 | 0.41 | 0.00 | 64 | 1005.7 |
| 20260506134603 | 18 | 221 | 0.0 | 0.0 | 0.00 | 0.41 | 0.00 | 63 | 1005.8 |
| 20260506133028 | 18 | 273 | 0.0 | 3.2 | 0.00 | 0.41 | 0.00 | 63 | 1005.9 |
| 20260506131528 | 18 | 255 | 0.0 | 0.0 | 0.00 | 0.41 | 0.00 | 61 | 1006.1 |
| 20260506130025 | 18 | 292 | 0.0 | 4.8 | 0.00 | 0.41 | 0.00 | 59 | 1006.1 |
| 20260506124523 | 19 | 264 | 0.0 | 4.8 | 0.00 | 0.41 | 0.00 | 59 | 1006.2 |
| 20260506123022 | 18 | 209 | 1.6 | 8.0 | 0.00 | 0.41 | 0.00 | 61 | 1006.3 |
| 20260506121517 | 18 | 293 | 0.0 | 4.8 | 0.00 | 0.41 | 0.00 | 62 | 1006.4 |
| 20260506120015 | 18 | 194 | 1.6 | 8.0 | 0.00 | 0.41 | 0.00 | 61 | 1006.4 |
| 20260506114523 | 17 | 116 | 0.0 | 8.0 | 0.00 | 0.41 | 0.00 | 66 | 1006.6 |
| 20260506113014 | 17 | 100 | 0.0 | 4.8 | 0.00 | 0.41 | 0.00 | 64 | 1006.6 |
| 20260506111512 | 18 | 99 | 0.0 | 9.7 | 0.00 | 0.41 | 0.00 | 63 | 1006.7 |
| 20260506110014 | 17 | 238 | 3.2 | 12.9 | 0.00 | 0.41 | 0.00 | 72 | 1006.9 |
| 20260506104505 | 16 | 223 | 0.0 | 8.0 | 0.00 | 0.41 | 0.00 | 72 | 1007.1 |
| 20260506103015 | 16 | 257 | 0.0 | 4.8 | 0.00 | 0.41 | 0.00 | 73 | 1007.1 |
| 20260506101504 | 16 | 227 | 1.6 | 8.0 | 0.00 | 0.41 | 0.00 | 73 | 1007.2 |
| 20260506100001 | 16 | 259 | 0.0 | 4.8 | 0.00 | 0.41 | 0.00 | 76 | 1007.1 |
| 20260506094559 | 16 | 290 | 0.0 | 8.0 | 0.00 | 0.41 | 0.00 | 76 | 1007.1 |